Aérodrome :
LOGIN :

S'inscrire | Disclaimer

   EN    FR    IT 

 










Légende :    VFR   VFR Marginal   IFR   IFR Intensif   IFR Très Intensif
Visi : 
Plafond : 
>= 8 km
>= 3000ft
5 à 8 km
1000 à 3000 ft
1500m à 5 km
500 à 1000 ft
800 à 1500m
200 à 500 ft
< 800m
< 200 ft
Symboles :   Orages  Brouillard  Fortes neiges  Fortes précipitations  Vent > 20 kt
SIGMETs :   Divers  Orages  Givrage  Turbulence  Onde Orograph.  Cendres Volcan.






- Altitude de l'aérodrome : 686 ft
- Code IATA : URS


UUOK - Vostochny

DERNIER METAR :
  • 100730Z 34003MPS 300V020 9999 SCT041 24/12 Q1015 R12/CLRD65 NOSIG RMK QFE744/0992

METARs EXPIRÉS :
  • 100700Z 02003MPS CAVOK 24/13 Q1015 R12/CLRD65 NOSIG RMK QFE744/0992
  • 100630Z 36003MPS 330V040 CAVOK 23/14 Q1015 R12/CLRD65 NOSIG RMK QFE744/0992
  • 100600Z 36002MPS 310V030 CAVOK 22/14 Q1016 R12/CLRD65 NOSIG RMK QFE744/0992
  • 100530Z 36003MPS CAVOK 21/14 Q1016 R12/CLRD65 NOSIG RMK QFE744/0992
  • 100500Z 02002MPS 350V050 CAVOK 20/14 Q1016 R12/CLRD65 NOSIG RMK QFE744/0992

TAF TAF UUOK
Valide du 10 à 06h jusqu'au 10 à 15h UTC


100450Z 1006/1015 36006MPS 9999 BKN033



MET'MAP, la Météo Aéronautique d'un coup d'oeil ! - Copyright ORBIFLY Décembre 2007 - Disclaimer

ORBIFLY MET'MAP TEAM :

Programmation & Développement : Alexandra Zaïnal
Sur une idée originale de : Baudouin d'Aumeries
Assistance à la programmation : Marc-Olivier Méhu
Soutien technique & logistique : Manuel Goepfert

Contact : metmap@orbifly.com




SOURCES & CREDITS :

   NOAA